createdAt,value
2019-03-23T00:02:00.602Z,66.73
2019-03-23T00:04:27.233Z,66.83
2019-03-23T00:06:53.795Z,66.67
2019-03-23T00:09:21.160Z,66.43
2019-03-23T00:11:47.902Z,66.36
2019-03-23T00:14:14.536Z,66.60
2019-03-23T00:16:41.366Z,67.05
2019-03-23T00:19:08.114Z,66.55
2019-03-23T00:21:34.692Z,65.88
2019-03-23T00:24:04.284Z,65.93
2019-03-23T00:26:31.072Z,65.38
2019-03-23T00:28:57.598Z,66.70
2019-03-23T00:31:24.265Z,68.28
2019-03-23T00:33:50.847Z,67.72
2019-03-23T00:36:17.490Z,67.77
2019-03-23T00:38:44.075Z,67.70
2019-03-23T00:41:10.659Z,67.68
2019-03-23T00:43:37.324Z,67.55
2019-03-23T00:46:03.918Z,66.61
2019-03-23T00:48:30.673Z,66.95
2019-03-23T00:50:57.247Z,68.02
2019-03-23T00:53:23.820Z,68.31
2019-03-23T00:55:50.453Z,68.16
2019-03-23T00:58:17.012Z,67.48
2019-03-23T01:00:43.658Z,66.36
2019-03-23T01:03:10.313Z,66.46
2019-03-23T01:05:36.925Z,66.88
2019-03-23T01:08:03.769Z,66.16
2019-03-23T01:10:31.829Z,65.97
2019-03-23T01:12:59.777Z,66.75
2019-03-23T01:15:26.580Z,68.60
2019-03-23T01:17:53.218Z,68.76
2019-03-23T01:20:21.611Z,68.72
2019-03-23T01:22:48.184Z,68.46
2019-03-23T01:25:14.846Z,69.41
2019-03-23T01:27:41.421Z,69.45
2019-03-23T01:30:12.712Z,68.64
2019-03-23T01:32:39.520Z,69.26
2019-03-23T01:35:07.613Z,69.31
2019-03-23T01:37:34.328Z,70.06
2019-03-23T01:40:01.202Z,68.17
2019-03-23T01:42:27.965Z,69.12
2019-03-23T01:44:54.635Z,70.04
2019-03-23T01:47:21.285Z,69.96
2019-03-23T01:49:47.945Z,69.69
2019-03-23T01:52:15.609Z,69.50
2019-03-23T01:54:42.457Z,69.17
2019-03-23T01:57:09.140Z,69.73
2019-03-23T01:59:35.716Z,70.08
2019-03-23T02:02:02.447Z,70.48
2019-03-23T02:04:29.226Z,70.51
2019-03-23T02:06:55.802Z,70.41
2019-03-23T02:09:22.718Z,70.33
2019-03-23T02:11:49.312Z,70.65
2019-03-23T02:14:15.968Z,70.43
2019-03-23T02:16:42.721Z,70.14
2019-03-23T02:19:09.521Z,69.92
2019-03-23T02:21:36.214Z,70.57
2019-03-23T02:24:02.976Z,70.47
2019-03-23T02:26:30.803Z,70.43
2019-03-23T02:28:57.672Z,69.90
2019-03-23T02:31:24.490Z,69.90
2019-03-23T02:33:51.165Z,68.93
2019-03-23T02:36:17.929Z,69.55
2019-03-23T02:38:50.130Z,68.70
2019-03-23T02:41:51.745Z,69.35
2019-03-23T02:44:18.562Z,69.63
2019-03-23T02:46:45.131Z,68.79
2019-03-23T02:49:11.789Z,68.13
2019-03-23T02:51:39.797Z,67.80
2019-03-23T02:54:07.005Z,70.70
2019-03-23T02:56:33.624Z,70.72
2019-03-23T02:59:00.237Z,69.13
2019-03-23T03:01:26.933Z,69.50
2019-03-23T03:03:53.524Z,70.46
2019-03-23T03:06:20.281Z,70.40
2019-03-23T03:08:46.883Z,70.50
2019-03-23T03:11:13.512Z,70.85
2019-03-23T03:13:40.278Z,70.68
2019-03-23T03:16:06.866Z,70.76
2019-03-23T03:18:33.526Z,70.76
2019-03-23T03:21:00.193Z,70.37
2019-03-23T03:23:26.760Z,70.69
2019-03-23T03:25:53.357Z,70.90
2019-03-23T03:28:20.026Z,70.77
2019-03-23T03:30:46.835Z,71.07
2019-03-23T03:33:13.446Z,71.22
2019-03-23T03:35:40.059Z,71.40
2019-03-23T03:38:06.633Z,71.20
2019-03-23T03:40:33.391Z,70.46
2019-03-23T03:43:00.181Z,70.24
2019-03-23T03:45:27.184Z,69.05
2019-03-23T03:47:54.147Z,68.69
2019-03-23T03:50:20.941Z,68.50
2019-03-23T03:52:47.703Z,69.26
2019-03-23T03:55:14.294Z,70.76
2019-03-23T03:57:40.864Z,70.85
2019-03-23T04:00:08.948Z,70.67
2019-03-23T04:02:36.613Z,70.17
2019-03-23T04:05:05.384Z,69.83
2019-03-23T04:07:32.020Z,70.32
2019-03-23T04:09:58.616Z,69.69
2019-03-23T04:12:25.198Z,69.61
2019-03-23T04:14:51.809Z,69.54
2019-03-23T04:17:18.752Z,70.21
2019-03-23T04:19:47.250Z,70.12
2019-03-23T04:22:13.868Z,69.39
2019-03-23T04:24:40.519Z,69.13
2019-03-23T04:27:07.221Z,69.55
2019-03-23T04:29:33.789Z,69.43
2019-03-23T04:32:00.578Z,70.37
2019-03-23T04:34:27.380Z,70.14
2019-03-23T04:36:57.319Z,69.99
2019-03-23T04:39:23.976Z,71.07
2019-03-23T04:41:50.643Z,71.23
2019-03-23T04:44:17.412Z,70.96
2019-03-23T04:46:44.140Z,71.34
2019-03-23T04:49:10.808Z,71.51
2019-03-23T04:51:37.548Z,71.29
2019-03-23T04:54:04.266Z,70.93
2019-03-23T04:56:30.856Z,70.74
2019-03-23T04:58:57.592Z,70.41
2019-03-23T05:01:24.183Z,70.52
2019-03-23T05:03:50.862Z,70.78
2019-03-23T05:06:17.467Z,70.70
2019-03-23T05:08:44.061Z,70.28
2019-03-23T05:11:10.636Z,70.38
2019-03-23T05:13:37.219Z,70.37
2019-03-23T05:16:03.969Z,70.26
2019-03-23T05:18:30.632Z,70.49
2019-03-23T05:20:57.300Z,69.91
2019-03-23T05:23:23.950Z,69.96
2019-03-23T05:25:50.565Z,69.91
2019-03-23T05:28:17.210Z,70.02
2019-03-23T05:30:44.857Z,69.81
2019-03-23T05:33:13.375Z,69.82
2019-03-23T05:35:39.939Z,69.83
2019-03-23T05:38:06.501Z,69.76
2019-03-23T05:40:33.122Z,69.68
2019-03-23T05:42:59.658Z,69.56
2019-03-23T05:45:26.534Z,69.67
2019-03-23T05:47:53.145Z,70.06
2019-03-23T05:50:19.695Z,70.38
2019-03-23T05:52:46.383Z,70.28
2019-03-23T05:55:13.104Z,69.44
2019-03-23T05:57:39.703Z,68.95
2019-03-23T06:00:10.688Z,68.70
2019-03-23T06:02:37.403Z,69.19
2019-03-23T06:05:05.437Z,68.39
2019-03-23T06:07:32.127Z,69.40
2019-03-23T06:09:58.869Z,69.54
2019-03-23T06:12:25.458Z,69.94
2019-03-23T06:14:52.040Z,69.67
2019-03-23T06:17:18.841Z,69.64
2019-03-23T06:19:45.429Z,69.46
2019-03-23T06:22:13.318Z,69.57
2019-03-23T06:24:39.943Z,68.99
2019-03-23T06:27:06.555Z,68.42
2019-03-23T06:29:33.101Z,67.54
2019-03-23T06:32:02.049Z,66.83
2019-03-23T06:34:28.746Z,66.53
2019-03-23T06:36:55.307Z,66.88
2019-03-23T06:39:21.940Z,67.12
2019-03-23T06:41:48.547Z,66.25
2019-03-23T06:44:15.297Z,65.69
2019-03-23T06:46:41.915Z,64.98
2019-03-23T06:49:08.534Z,64.06
2019-03-23T06:51:35.168Z,63.93
2019-03-23T06:54:01.818Z,63.92
2019-03-23T06:56:28.719Z,62.12
2019-03-23T06:58:55.563Z,59.92
2019-03-23T07:01:22.546Z,57.67
2019-03-23T07:03:49.215Z,56.00
2019-03-23T07:06:15.767Z,55.21
2019-03-23T07:08:42.339Z,54.32
2019-03-23T07:11:08.961Z,53.16
2019-03-23T07:13:35.559Z,52.56
2019-03-23T07:16:02.722Z,52.22
2019-03-23T07:18:29.387Z,50.41
2019-03-23T07:20:56.099Z,49.50
2019-03-23T07:23:23.356Z,48.48
2019-03-23T07:25:49.908Z,47.55
2019-03-23T07:28:16.766Z,49.49
2019-03-23T07:30:43.388Z,48.10
2019-03-23T07:33:09.945Z,47.03
2019-03-23T07:35:36.579Z,47.04
2019-03-23T07:38:03.679Z,47.94
2019-03-23T07:40:31.034Z,48.20
2019-03-23T07:42:58.044Z,46.39
2019-03-23T07:45:24.866Z,45.88
2019-03-23T07:47:51.561Z,45.04
2019-03-23T07:50:18.171Z,44.54
2019-03-23T07:52:45.080Z,43.78
2019-03-23T07:55:14.110Z,43.43
2019-03-23T07:57:41.516Z,44.67
2019-03-23T08:00:13.885Z,43.94
2019-03-23T08:02:40.677Z,43.39
2019-03-23T08:05:10.637Z,43.24
2019-03-23T08:07:37.490Z,42.50
2019-03-23T08:11:00.488Z,41.32
2019-03-23T08:13:27.345Z,41.24
2019-03-23T08:15:54.175Z,40.83
2019-03-23T08:18:20.881Z,40.20
2019-03-23T08:20:47.532Z,39.75
2019-03-23T08:23:14.136Z,39.28
2019-03-23T08:25:40.783Z,39.53
2019-03-23T08:28:07.536Z,37.53
2019-03-23T08:30:34.277Z,37.01
2019-03-23T08:33:00.929Z,36.92
2019-03-23T08:35:27.751Z,35.76
2019-03-23T08:37:54.425Z,36.55
2019-03-23T08:40:21.107Z,36.81
2019-03-23T08:42:47.688Z,35.57
2019-03-23T08:45:14.802Z,36.21
2019-03-23T08:47:41.367Z,35.81
2019-03-23T08:50:08.731Z,35.79
2019-03-23T08:52:35.404Z,34.88
2019-03-23T08:55:03.153Z,34.70
2019-03-23T08:57:29.921Z,33.90
2019-03-23T08:59:56.854Z,34.13
2019-03-23T09:02:23.788Z,33.99
2019-03-23T09:04:50.364Z,33.38
2019-03-23T09:07:17.124Z,33.00
2019-03-23T09:09:43.777Z,32.96
2019-03-23T09:12:10.716Z,31.93
2019-03-23T09:14:37.388Z,32.65
2019-03-23T09:17:04.141Z,32.14
2019-03-23T09:19:30.966Z,32.18
2019-03-23T09:21:58.809Z,32.29
2019-03-23T09:24:25.433Z,32.78
2019-03-23T09:26:52.240Z,32.57
2019-03-23T09:29:19.005Z,32.98
2019-03-23T09:31:45.624Z,33.01
2019-03-23T09:34:12.363Z,32.25
2019-03-23T09:36:41.244Z,32.78
2019-03-23T09:39:07.650Z,33.27
2019-03-23T09:41:34.431Z,32.59
2019-03-23T09:44:01.311Z,33.02
2019-03-23T09:46:28.239Z,33.41
2019-03-23T09:48:55.047Z,33.42
2019-03-23T09:51:21.635Z,33.29
2019-03-23T09:53:48.442Z,32.21
2019-03-23T09:56:15.173Z,32.51
2019-03-23T09:58:41.786Z,32.77
2019-03-23T10:01:08.722Z,33.36
2019-03-23T10:03:35.351Z,32.71
2019-03-23T10:06:05.975Z,32.92
2019-03-23T10:08:34.117Z,33.40
2019-03-23T10:11:00.832Z,33.95
2019-03-23T10:13:28.591Z,34.43
2019-03-23T10:15:55.325Z,34.28
2019-03-23T10:18:22.019Z,34.36
2019-03-23T10:20:48.658Z,34.05
2019-03-23T10:23:15.284Z,34.44
2019-03-23T10:25:42.043Z,34.97
2019-03-23T10:28:08.756Z,35.02
2019-03-23T10:30:35.522Z,35.97
2019-03-23T10:33:02.093Z,34.58
2019-03-23T10:35:28.918Z,34.66
2019-03-23T10:37:55.618Z,34.96
2019-03-23T10:40:32.011Z,34.67
2019-03-23T10:42:51.348Z,34.35
2019-03-23T10:45:18.127Z,35.46
2019-03-23T10:47:45.091Z,35.16
2019-03-23T10:50:12.031Z,34.28
2019-03-23T10:52:38.715Z,34.75
2019-03-23T10:55:06.097Z,33.79
2019-03-23T10:57:32.717Z,33.78
2019-03-23T10:59:59.284Z,34.10
2019-03-23T11:02:25.970Z,33.56
2019-03-23T11:04:52.577Z,33.22
2019-03-23T11:07:19.271Z,33.08
2019-03-23T11:09:45.927Z,32.96
2019-03-23T11:12:12.657Z,32.24
2019-03-23T11:14:39.263Z,32.75
2019-03-23T11:17:05.918Z,32.47
2019-03-23T11:19:32.595Z,32.12
2019-03-23T11:21:59.179Z,31.76
2019-03-23T11:24:25.835Z,32.35
2019-03-23T11:26:53.439Z,32.09
2019-03-23T11:29:20.283Z,32.49
2019-03-23T11:31:46.921Z,32.14
2019-03-23T11:34:17.745Z,32.04
2019-03-23T11:36:42.277Z,31.84
2019-03-23T11:39:08.861Z,31.80
2019-03-23T11:41:35.603Z,32.19
2019-03-23T11:44:04.465Z,31.91
2019-03-23T11:46:31.151Z,31.78
2019-03-23T11:48:57.779Z,30.72
2019-03-23T11:51:24.497Z,30.85
2019-03-23T11:53:51.062Z,31.42
2019-03-23T11:56:17.714Z,31.67
2019-03-23T11:58:44.281Z,31.30
2019-03-23T12:01:11.054Z,30.90
2019-03-23T12:03:37.921Z,31.07
2019-03-23T12:06:04.872Z,31.22
2019-03-23T12:08:31.523Z,31.00
2019-03-23T12:11:02.790Z,31.05
2019-03-23T12:13:26.772Z,30.59
2019-03-23T12:15:53.332Z,30.65
2019-03-23T12:18:19.986Z,30.45
2019-03-23T12:20:46.647Z,30.50
2019-03-23T12:23:13.407Z,30.62
2019-03-23T12:25:39.975Z,31.08
2019-03-23T12:28:06.596Z,30.90
2019-03-23T12:30:33.349Z,30.82
2019-03-23T12:32:59.997Z,30.75
2019-03-23T12:35:26.871Z,30.90
2019-03-23T12:37:53.559Z,30.70
2019-03-23T12:40:20.113Z,30.10
2019-03-23T12:42:46.781Z,30.09
2019-03-23T12:45:16.852Z,30.01
2019-03-23T12:47:43.554Z,30.15
2019-03-23T12:50:11.034Z,30.19
2019-03-23T12:52:38.006Z,30.29
2019-03-23T12:55:09.375Z,30.40
2019-03-23T12:57:36.020Z,30.44
2019-03-23T13:00:08.460Z,30.54
2019-03-23T13:02:35.228Z,30.29
2019-03-23T13:05:04.464Z,29.88
2019-03-23T13:07:31.130Z,29.83
2019-03-23T13:09:57.727Z,29.79
2019-03-23T13:12:24.495Z,29.92
2019-03-23T13:14:51.271Z,30.26
2019-03-23T13:17:17.956Z,30.23
2019-03-23T13:19:44.530Z,30.55
2019-03-23T13:22:11.159Z,30.56
2019-03-23T13:24:37.705Z,30.75
2019-03-23T13:27:04.474Z,31.13
2019-03-23T13:29:31.062Z,30.71
2019-03-23T13:31:57.835Z,30.93
2019-03-23T13:34:24.455Z,30.92
2019-03-23T13:36:51.182Z,31.00
2019-03-23T13:39:17.755Z,30.81
2019-03-23T13:41:47.949Z,30.96
2019-03-23T13:44:16.053Z,31.26
2019-03-23T13:46:42.923Z,31.07
2019-03-23T13:49:09.491Z,30.92
2019-03-23T13:51:36.093Z,30.56
2019-03-23T13:54:02.942Z,29.91
2019-03-23T13:56:30.815Z,29.61
2019-03-23T13:58:57.490Z,29.59
2019-03-23T14:01:24.059Z,30.59
2019-03-23T14:03:50.599Z,30.32
2019-03-23T14:06:17.221Z,29.88
2019-03-23T14:08:43.909Z,29.57
2019-03-23T14:11:10.506Z,29.99
2019-03-23T14:13:37.074Z,29.64
2019-03-23T14:16:03.724Z,29.87
2019-03-23T14:18:30.347Z,28.87
2019-03-23T14:20:56.898Z,29.33
2019-03-23T14:23:23.544Z,29.35
2019-03-23T14:25:50.427Z,29.42
2019-03-23T14:28:17.025Z,29.17
2019-03-23T14:30:43.857Z,29.62
2019-03-23T14:33:10.540Z,29.36
2019-03-23T14:35:37.160Z,29.31
2019-03-23T14:38:03.875Z,29.21
2019-03-23T14:40:30.600Z,29.33
2019-03-23T14:42:57.242Z,29.69
2019-03-23T14:45:24.022Z,29.77
2019-03-23T14:47:50.607Z,29.45
2019-03-23T14:50:17.391Z,29.09
2019-03-23T14:52:44.068Z,29.38
2019-03-23T14:55:11.100Z,29.57
2019-03-23T14:57:40.471Z,30.13
2019-03-23T15:00:09.462Z,31.08
2019-03-23T15:02:37.455Z,30.66
2019-03-23T15:05:06.422Z,30.80
2019-03-23T15:07:33.032Z,30.96
2019-03-23T15:09:59.612Z,31.27
2019-03-23T15:12:26.324Z,31.49
2019-03-23T15:14:53.981Z,31.77
2019-03-23T15:17:20.560Z,31.77
2019-03-23T15:19:47.160Z,31.89
2019-03-23T15:22:13.896Z,32.40
2019-03-23T15:24:40.485Z,32.72
2019-03-23T15:27:07.071Z,32.82
2019-03-23T15:29:33.639Z,33.01
2019-03-23T15:32:00.195Z,33.29
2019-03-23T15:34:26.831Z,33.23
2019-03-23T15:36:53.470Z,33.52
2019-03-23T15:39:20.226Z,33.71
2019-03-23T15:41:46.929Z,33.58
2019-03-23T15:44:13.625Z,33.65
2019-03-23T15:46:40.227Z,34.08
2019-03-23T15:49:06.866Z,34.24
2019-03-23T15:51:33.469Z,34.26
2019-03-23T15:54:00.035Z,34.35
2019-03-23T15:56:26.753Z,34.84
2019-03-23T15:58:53.323Z,35.04
2019-03-23T16:01:19.916Z,35.09
2019-03-23T16:03:46.611Z,35.63
2019-03-23T16:06:13.307Z,35.88
2019-03-23T16:08:40.124Z,36.02
2019-03-23T16:11:06.836Z,36.04
2019-03-23T16:13:33.593Z,36.48
2019-03-23T16:16:00.183Z,37.08
2019-03-23T16:18:26.939Z,38.73
2019-03-23T16:20:53.516Z,39.18
2019-03-23T16:23:20.187Z,40.34
2019-03-23T16:25:46.760Z,41.37
2019-03-23T16:28:13.403Z,41.13
2019-03-23T16:30:40.022Z,41.39
2019-03-23T16:33:06.601Z,41.54
2019-03-23T16:35:34.287Z,42.33
2019-03-23T16:38:01.026Z,43.05
2019-03-23T16:40:27.875Z,43.17
2019-03-23T16:42:54.546Z,43.56
2019-03-23T16:45:21.506Z,44.01
2019-03-23T16:47:48.478Z,44.49
2019-03-23T16:50:15.254Z,44.44
2019-03-23T16:52:41.930Z,44.94
2019-03-23T16:55:10.123Z,45.43
2019-03-23T16:57:38.007Z,45.75
2019-03-23T17:00:10.351Z,46.51
2019-03-23T17:02:37.170Z,46.79
2019-03-23T17:05:05.118Z,47.17
2019-03-23T17:07:32.020Z,47.22
2019-03-23T17:09:58.599Z,47.55
2019-03-23T17:12:27.371Z,47.86
2019-03-23T17:14:53.973Z,48.56
2019-03-23T17:17:20.575Z,49.62
2019-03-23T17:19:47.281Z,49.98
2019-03-23T17:22:13.915Z,49.57
2019-03-23T17:24:40.488Z,50.10
2019-03-23T17:27:07.306Z,49.66
2019-03-23T17:29:33.958Z,50.47
2019-03-23T17:32:00.679Z,49.94
2019-03-23T17:34:28.772Z,49.69
2019-03-23T17:36:55.367Z,49.64
2019-03-23T17:39:23.392Z,50.10
2019-03-23T17:41:50.081Z,50.29
2019-03-23T17:44:16.939Z,50.76
2019-03-23T17:46:43.772Z,50.66
2019-03-23T17:49:10.463Z,50.86
2019-03-23T17:51:37.067Z,50.51
2019-03-23T17:54:03.853Z,50.49
2019-03-23T17:56:30.428Z,51.71
2019-03-23T17:58:57.061Z,52.32
2019-03-23T18:01:23.804Z,52.62
2019-03-23T18:03:50.792Z,53.00
2019-03-23T18:06:17.493Z,53.43
2019-03-23T18:08:44.174Z,52.74
2019-03-23T18:11:10.933Z,52.28
2019-03-23T18:13:37.917Z,52.25
2019-03-23T18:16:04.498Z,52.57
2019-03-23T18:18:31.595Z,52.91
2019-03-23T18:21:00.322Z,53.87
2019-03-23T18:23:26.989Z,54.01
2019-03-23T18:25:53.792Z,54.07
2019-03-23T18:28:20.574Z,53.70
2019-03-23T18:30:48.494Z,53.59
2019-03-23T18:33:15.171Z,53.81
2019-03-23T18:35:42.078Z,53.48
2019-03-23T18:38:08.946Z,53.30
2019-03-23T18:40:35.964Z,54.29
2019-03-23T18:43:05.506Z,55.01
2019-03-23T18:45:32.517Z,54.87
2019-03-23T18:47:59.099Z,54.34
2019-03-23T18:50:26.584Z,54.54
2019-03-23T18:52:53.282Z,55.00
2019-03-23T18:55:20.109Z,55.07
2019-03-23T18:57:46.827Z,54.77
2019-03-23T19:00:19.170Z,55.29
2019-03-23T19:02:45.932Z,55.46
2019-03-23T19:05:13.649Z,55.48
2019-03-23T19:07:43.910Z,55.07
2019-03-23T19:10:10.860Z,55.65
2019-03-23T19:12:37.558Z,55.72
2019-03-23T19:15:05.784Z,55.46
2019-03-23T19:17:32.354Z,56.29
2019-03-23T19:19:59.124Z,56.06
2019-03-23T19:22:25.732Z,55.74
2019-03-23T19:24:52.583Z,56.38
2019-03-23T19:27:19.203Z,56.39
2019-03-23T19:29:45.801Z,56.54
2019-03-23T19:32:12.704Z,56.75
2019-03-23T19:34:39.371Z,56.00
2019-03-23T19:37:06.168Z,56.59
2019-03-23T19:39:32.850Z,55.55
2019-03-23T19:41:59.527Z,56.63
2019-03-23T19:44:26.168Z,55.76
2019-03-23T19:46:52.924Z,55.94
2019-03-23T19:49:20.646Z,55.73
2019-03-23T19:51:47.408Z,55.93
2019-03-23T19:54:14.061Z,55.67
2019-03-23T19:56:46.937Z,56.20
2019-03-23T19:59:13.693Z,56.17
2019-03-23T20:01:40.255Z,56.54
2019-03-23T20:04:07.052Z,56.81
2019-03-23T20:06:36.743Z,56.69
2019-03-23T20:09:09.155Z,56.37
2019-03-23T20:11:35.806Z,57.48
2019-03-23T20:14:03.288Z,57.28
2019-03-23T20:16:29.992Z,56.95
2019-03-23T20:18:56.594Z,57.15
2019-03-23T20:21:23.429Z,56.41
2019-03-23T20:23:51.321Z,56.27
2019-03-23T20:26:18.160Z,57.03
2019-03-23T20:28:44.995Z,57.81
2019-03-23T20:31:12.015Z,57.98
2019-03-23T20:33:38.807Z,56.75
2019-03-23T20:36:05.373Z,57.06
2019-03-23T20:38:32.025Z,57.29
2019-03-23T20:40:58.764Z,58.15
2019-03-23T20:43:25.531Z,57.93
2019-03-23T20:45:52.487Z,57.72
2019-03-23T20:48:19.280Z,57.81
2019-03-23T20:50:47.206Z,58.92
2019-03-23T20:53:14.994Z,58.61
2019-03-23T20:55:42.991Z,58.62
2019-03-23T20:58:09.591Z,58.35
2019-03-23T21:00:36.187Z,58.42
2019-03-23T21:03:03.530Z,58.34
2019-03-23T21:05:34.221Z,58.46
2019-03-23T21:08:00.864Z,58.69
2019-03-23T21:10:27.819Z,58.80
2019-03-23T21:12:54.486Z,59.36
2019-03-23T21:15:26.500Z,58.38
2019-03-23T21:17:53.249Z,58.56
2019-03-23T21:20:20.041Z,59.19
2019-03-23T21:22:46.885Z,58.47
2019-03-23T21:25:14.405Z,57.88
2019-03-23T21:27:41.238Z,58.55
2019-03-23T21:30:16.629Z,57.72
2019-03-23T21:32:43.372Z,58.32
2019-03-23T21:35:10.889Z,58.79
2019-03-23T21:37:41.165Z,59.57
2019-03-23T21:40:08.421Z,59.86
2019-03-23T21:42:35.251Z,59.00
2019-03-23T21:45:05.422Z,59.34
2019-03-23T21:47:32.293Z,59.32
2019-03-23T21:49:58.966Z,59.60
2019-03-23T21:52:25.874Z,59.56
2019-03-23T21:54:53.007Z,59.79
2019-03-23T21:57:19.727Z,60.06
2019-03-23T21:59:46.297Z,60.08
2019-03-23T22:02:13.243Z,59.96
2019-03-23T22:04:39.881Z,60.14
2019-03-23T22:07:06.583Z,60.54
2019-03-23T22:09:33.247Z,60.28
2019-03-23T22:11:59.904Z,60.74
2019-03-23T22:14:26.438Z,60.44
2019-03-23T22:16:53.057Z,60.52
2019-03-23T22:19:19.728Z,60.66
2019-03-23T22:21:46.350Z,60.63
2019-03-23T22:24:14.029Z,60.87
2019-03-23T22:26:40.580Z,60.54
2019-03-23T22:29:07.171Z,62.20
2019-03-23T22:31:33.720Z,61.44
2019-03-23T22:34:00.326Z,61.81
2019-03-23T22:36:27.035Z,61.92
2019-03-23T22:38:53.954Z,63.90
2019-03-23T22:41:20.552Z,63.20
2019-03-23T22:43:47.275Z,63.51
2019-03-23T22:46:13.867Z,63.75
2019-03-23T22:48:40.754Z,62.71
2019-03-23T22:51:07.340Z,63.73
2019-03-23T22:53:34.026Z,63.60
2019-03-23T22:56:02.747Z,68.81
2019-03-23T22:58:29.967Z,67.24
2019-03-23T23:00:57.179Z,67.22
2019-03-23T23:03:24.044Z,68.64
2019-03-23T23:05:50.758Z,69.34
2019-03-23T23:08:17.573Z,69.24
2019-03-23T23:10:44.460Z,69.23
2019-03-23T23:13:11.371Z,68.53
2019-03-23T23:15:38.135Z,69.42
2019-03-23T23:18:05.018Z,69.63
2019-03-23T23:20:31.715Z,68.94
2019-03-23T23:22:58.413Z,67.81
2019-03-23T23:25:25.124Z,67.93
2019-03-23T23:28:48.171Z,67.67
2019-03-23T23:31:14.870Z,67.11
2019-03-23T23:33:41.503Z,67.03
2019-03-23T23:36:08.173Z,66.69
2019-03-23T23:38:34.739Z,67.22
2019-03-23T23:41:01.459Z,66.41
2019-03-23T23:43:28.361Z,65.51
2019-03-23T23:45:55.039Z,65.44
2019-03-23T23:48:21.666Z,65.79
2019-03-23T23:50:48.413Z,65.64
2019-03-23T23:53:14.980Z,65.44
2019-03-23T23:55:41.552Z,65.03
2019-03-23T23:58:08.201Z,65.61
